createdAt,value
2019-02-19T00:00:21.870Z,8.61
2019-02-19T00:02:53.307Z,8.64
2019-02-19T00:05:27.652Z,8.66
2019-02-19T00:07:58.681Z,8.67
2019-02-19T00:10:32.831Z,8.65
2019-02-19T00:13:04.484Z,8.64
2019-02-19T00:15:35.406Z,8.63
2019-02-19T00:18:10.750Z,8.63
2019-02-19T00:20:46.018Z,8.63
2019-02-19T00:23:17.229Z,8.60
2019-02-19T00:25:52.425Z,8.60
2019-02-19T00:28:22.571Z,8.60
2019-02-19T00:30:52.312Z,8.61
2019-02-19T00:33:25.262Z,8.60
2019-02-19T00:35:59.190Z,8.58
2019-02-19T00:38:29.563Z,8.55
2019-02-19T00:40:59.201Z,8.51
2019-02-19T00:43:33.161Z,8.47
2019-02-19T00:46:07.130Z,8.43
2019-02-19T00:48:39.487Z,8.39
2019-02-19T00:51:11.150Z,8.34
2019-02-19T00:53:41.674Z,8.30
2019-02-19T00:56:14.662Z,8.28
2019-02-19T00:58:44.957Z,8.26
2019-02-19T01:01:18.732Z,8.28
2019-02-19T01:03:53.290Z,8.30
2019-02-19T01:06:25.329Z,8.30
2019-02-19T01:08:56.889Z,8.31
2019-02-19T01:11:31.604Z,8.33
2019-02-19T01:14:09.064Z,8.36
2019-02-19T01:16:41.554Z,8.36
2019-02-19T01:19:16.770Z,8.34
2019-02-19T01:21:47.245Z,8.31
2019-02-19T01:24:17.881Z,8.25
2019-02-19T01:26:51.899Z,8.16
2019-02-19T01:29:24.961Z,8.07
2019-02-19T01:31:54.882Z,7.99
2019-02-19T01:34:32.242Z,7.92
2019-02-19T01:37:05.262Z,7.89
2019-02-19T01:39:37.576Z,7.87
2019-02-19T01:42:09.616Z,7.88
2019-02-19T01:44:43.796Z,7.90
2019-02-19T01:47:14.010Z,7.92
2019-02-19T01:49:48.462Z,7.93
2019-02-19T01:52:23.579Z,7.92
2019-02-19T01:54:54.358Z,7.90
2019-02-19T01:57:28.547Z,7.86
2019-02-19T01:59:58.377Z,7.84
2019-02-19T02:02:32.600Z,7.82
2019-02-19T02:05:05.624Z,7.80
2019-02-19T02:07:38.207Z,7.78
2019-02-19T02:10:11.850Z,7.78
2019-02-19T02:12:44.512Z,7.78
2019-02-19T02:15:18.027Z,7.76
2019-02-19T02:17:47.843Z,7.76
2019-02-19T02:20:19.257Z,7.75
2019-02-19T02:27:43.215Z,7.72
2019-02-19T02:30:13.406Z,7.67
2019-02-19T02:32:50.203Z,7.61
2019-02-19T02:35:21.477Z,7.58
2019-02-19T02:37:52.454Z,7.53
2019-02-19T02:40:22.597Z,7.43
2019-02-19T02:42:53.006Z,7.36
2019-02-19T02:45:24.803Z,7.26
2019-02-19T02:47:59.142Z,7.17
2019-02-19T02:50:30.142Z,7.12
2019-02-19T02:53:00.915Z,7.06
2019-02-19T02:55:33.381Z,7.01
2019-02-19T02:58:10.671Z,6.98
2019-02-19T03:00:39.616Z,6.91
2019-02-19T03:03:11.181Z,6.89
2019-02-19T03:05:49.814Z,6.89
2019-02-19T03:08:22.600Z,6.91
2019-02-19T03:10:53.453Z,6.92
2019-02-19T03:13:24.736Z,6.92
2019-02-19T03:16:02.207Z,6.94
2019-02-19T03:18:33.222Z,6.91
2019-02-19T03:21:03.196Z,6.86
2019-02-19T03:23:35.935Z,6.83
2019-02-19T03:26:05.659Z,6.88
2019-02-19T03:28:36.094Z,6.94
2019-02-19T03:31:05.491Z,7.01
2019-02-19T03:33:39.734Z,7.05
2019-02-19T03:36:11.501Z,7.03
2019-02-19T03:38:43.356Z,7.02
2019-02-19T03:41:13.978Z,6.93
2019-02-19T03:43:47.843Z,6.86
2019-02-19T03:46:23.805Z,6.79
2019-02-19T03:48:55.928Z,6.81
2019-02-19T03:51:27.046Z,6.91
2019-02-19T03:53:59.109Z,7.00
2019-02-19T03:56:30.651Z,6.96
2019-02-19T03:59:03.369Z,6.92
2019-02-19T04:01:35.488Z,6.85
2019-02-19T04:04:05.843Z,6.72
2019-02-19T04:06:41.077Z,6.64
2019-02-19T04:09:14.289Z,6.60
2019-02-19T04:11:50.044Z,6.59
2019-02-19T04:14:19.877Z,6.62
2019-02-19T04:16:52.653Z,6.63
2019-02-19T04:19:25.038Z,6.62
2019-02-19T04:21:58.829Z,6.60
2019-02-19T04:24:32.918Z,6.62
2019-02-19T04:27:02.878Z,6.71
2019-02-19T04:29:34.430Z,6.78
2019-02-19T04:32:08.882Z,6.74
2019-02-19T04:34:38.310Z,6.67
2019-02-19T04:37:08.871Z,6.61
2019-02-19T04:39:40.207Z,6.56
2019-02-19T04:42:10.844Z,6.54
2019-02-19T04:44:44.817Z,6.53
2019-02-19T04:47:18.270Z,6.41
2019-02-19T04:49:48.955Z,6.33
2019-02-19T04:52:19.169Z,6.28
2019-02-19T04:54:52.150Z,6.29
2019-02-19T04:57:21.957Z,6.31
2019-02-19T04:59:56.855Z,6.35
2019-02-19T05:02:28.839Z,6.39
2019-02-19T05:05:01.982Z,6.36
2019-02-19T05:07:35.092Z,6.34
2019-02-19T05:10:09.020Z,6.37
2019-02-19T05:12:44.718Z,6.36
2019-02-19T05:15:14.819Z,6.30
2019-02-19T05:17:45.968Z,6.29
2019-02-19T05:20:16.065Z,6.29
2019-02-19T05:22:45.399Z,6.19
2019-02-19T05:25:17.127Z,6.15
2019-02-19T05:27:47.109Z,6.16
2019-02-19T05:30:18.516Z,6.16
2019-02-19T05:32:49.803Z,6.17
2019-02-19T05:35:20.674Z,6.15
2019-02-19T05:37:51.937Z,6.13
2019-02-19T05:40:22.855Z,6.09
2019-02-19T05:42:52.415Z,6.00
2019-02-19T05:45:25.035Z,5.95
2019-02-19T05:47:54.435Z,5.96
2019-02-19T05:50:27.551Z,6.02
2019-02-19T05:52:56.857Z,6.09
2019-02-19T05:55:32.683Z,6.13
2019-02-19T05:58:03.186Z,6.09
2019-02-19T06:00:33.016Z,6.10
2019-02-19T06:03:06.011Z,6.20
2019-02-19T06:05:38.546Z,6.32
2019-02-19T06:08:12.167Z,6.41
2019-02-19T06:10:44.133Z,6.42
2019-02-19T06:13:15.638Z,6.43
2019-02-19T06:15:45.774Z,6.49
2019-02-19T06:18:18.263Z,6.53
2019-02-19T06:20:50.372Z,6.59
2019-02-19T06:23:23.767Z,6.66
2019-02-19T06:25:57.295Z,6.72
2019-02-19T06:28:32.918Z,6.71
2019-02-19T06:31:05.017Z,6.70
2019-02-19T06:33:37.939Z,6.68
2019-02-19T06:36:07.234Z,6.71
2019-02-19T06:38:36.777Z,6.75
2019-02-19T06:41:16.042Z,6.80
2019-02-19T06:43:50.223Z,6.81
2019-02-19T06:46:25.780Z,6.77
2019-02-19T06:48:59.497Z,6.76
2019-02-19T06:51:31.773Z,6.79
2019-02-19T06:54:03.692Z,6.80
2019-02-19T06:56:34.185Z,6.75
2019-02-19T06:59:07.776Z,6.71
2019-02-19T07:02:47.173Z,6.68
2019-02-19T07:05:21.012Z,6.68
2019-02-19T07:07:51.662Z,6.66
2019-02-19T07:10:22.414Z,6.59
2019-02-19T07:12:55.022Z,6.58
2019-02-19T07:15:28.164Z,6.60
2019-02-19T07:18:02.316Z,6.62
2019-02-19T07:20:42.345Z,6.64
2019-02-19T07:23:13.177Z,6.67
2019-02-19T07:28:23.686Z,6.73
2019-02-19T07:30:54.672Z,6.80
2019-02-19T07:33:26.798Z,6.87
2019-02-19T07:36:00.189Z,6.91
2019-02-19T07:38:30.382Z,6.94
2019-02-19T07:41:03.582Z,6.98
2019-02-19T07:43:33.595Z,7.01
2019-02-19T07:46:02.797Z,7.01
2019-02-19T07:48:32.662Z,7.05
2019-02-19T07:53:46.007Z,7.17
2019-02-19T07:56:25.285Z,7.21
2019-02-19T07:59:00.146Z,7.24
2019-02-19T08:01:31.464Z,7.26
2019-02-19T08:04:09.263Z,7.32
2019-02-19T08:06:49.457Z,7.41
2019-02-19T08:09:19.793Z,7.49
2019-02-19T08:11:58.465Z,7.58
2019-02-19T08:14:28.635Z,7.65
2019-02-19T08:16:59.461Z,7.67
2019-02-19T08:19:31.010Z,7.69
2019-02-19T08:22:02.444Z,7.73
2019-02-19T08:24:38.442Z,7.75
2019-02-19T08:27:16.364Z,7.76
2019-02-19T08:29:45.766Z,7.76
2019-02-19T08:32:22.451Z,7.77
2019-02-19T08:34:52.823Z,7.80
2019-02-19T08:37:27.312Z,7.83
2019-02-19T08:39:56.596Z,7.86
2019-02-19T08:42:28.025Z,7.90
2019-02-19T08:47:43.007Z,7.94
2019-02-19T08:50:16.441Z,7.98
2019-02-19T08:52:48.903Z,7.98
2019-02-19T08:55:25.648Z,7.98
2019-02-19T09:02:19.585Z,8.01
2019-02-19T09:04:49.559Z,8.07
2019-02-19T09:07:20.312Z,8.09
2019-02-19T09:09:51.369Z,8.12
2019-02-19T09:12:25.943Z,8.17
2019-02-19T09:14:55.891Z,8.20
2019-02-19T09:17:28.084Z,8.21
2019-02-19T09:19:59.577Z,8.22
2019-02-19T09:22:30.176Z,8.24
2019-02-19T09:25:03.885Z,8.27
2019-02-19T09:27:33.961Z,8.30
2019-02-19T09:30:03.427Z,8.30
2019-02-19T09:32:33.398Z,8.33
2019-02-19T09:35:04.129Z,8.36
2019-02-19T09:37:36.913Z,8.40
2019-02-19T09:42:42.468Z,8.56
2019-02-19T09:45:20.386Z,8.67
2019-02-19T09:48:01.477Z,8.76
2019-02-19T09:50:29.554Z,8.87
2019-02-19T09:53:02.458Z,8.95
2019-02-19T09:55:35.226Z,9.03
2019-02-19T09:58:05.459Z,9.07
2019-02-19T10:00:40.221Z,9.11
2019-02-19T10:03:11.844Z,9.16
2019-02-19T10:05:41.867Z,9.23
2019-02-19T10:08:12.420Z,9.34
2019-02-19T10:10:43.881Z,9.42
2019-02-19T10:13:18.613Z,9.54
2019-02-19T10:15:54.210Z,9.66
2019-02-19T10:18:27.477Z,9.76
2019-02-19T10:20:59.799Z,9.81
2019-02-19T10:23:38.985Z,9.86
2019-02-19T10:26:08.319Z,9.93
2019-02-19T10:28:40.254Z,9.97
2019-02-19T10:31:11.116Z,9.97
2019-02-19T10:33:42.738Z,9.99
2019-02-19T10:36:13.832Z,10.00
2019-02-19T10:38:44.478Z,10.02
2019-02-19T10:41:19.061Z,10.05
2019-02-19T10:43:48.584Z,10.10
2019-02-19T10:46:18.883Z,10.17
2019-02-19T10:48:47.940Z,10.22
2019-02-19T10:51:21.050Z,10.29
2019-02-19T10:53:51.820Z,10.35
2019-02-19T10:56:21.632Z,10.40
2019-02-19T11:01:40.541Z,10.46
2019-02-19T11:04:10.003Z,10.50
2019-02-19T11:06:44.808Z,10.50
2019-02-19T11:09:14.987Z,10.53
2019-02-19T11:11:45.636Z,10.57
2019-02-19T11:19:38.066Z,10.63
2019-02-19T11:22:07.088Z,10.64
2019-02-19T11:24:43.026Z,10.65
2019-02-19T11:27:18.911Z,10.67
2019-02-19T11:29:54.890Z,10.69
2019-02-19T11:32:26.399Z,10.73
2019-02-19T11:34:54.902Z,10.77
2019-02-19T11:37:26.663Z,10.82
2019-02-19T11:39:56.645Z,10.89
2019-02-19T11:42:28.916Z,10.92
2019-02-19T11:44:58.833Z,10.93
2019-02-19T11:47:30.622Z,10.95
2019-02-19T11:50:01.684Z,10.96
2019-02-19T11:52:33.415Z,10.96
2019-02-19T11:55:14.181Z,10.93
2019-02-19T11:57:44.609Z,10.90
2019-02-19T12:00:28.236Z,10.89
2019-02-19T12:03:00.771Z,10.87
2019-02-19T12:05:33.200Z,10.90
2019-02-19T12:08:02.222Z,10.92
2019-02-19T12:10:33.626Z,10.97
2019-02-19T12:13:03.175Z,11.00
2019-02-19T12:15:42.543Z,11.05
2019-02-19T12:18:20.226Z,11.08
2019-02-19T12:20:50.129Z,11.11
2019-02-19T12:23:23.323Z,11.16
2019-02-19T12:25:53.941Z,11.20
2019-02-19T12:28:25.601Z,11.24
2019-02-19T12:30:56.084Z,11.25
2019-02-19T12:33:27.436Z,11.25
2019-02-19T12:35:57.231Z,11.26
2019-02-19T12:38:27.343Z,11.28
2019-02-19T12:41:02.000Z,11.30
2019-02-19T12:46:11.663Z,11.35
2019-02-19T12:48:43.683Z,11.39
2019-02-19T12:51:26.294Z,11.44
2019-02-19T12:53:53.864Z,11.48
2019-02-19T12:56:23.773Z,11.52
2019-02-19T12:58:53.915Z,11.54
2019-02-19T13:01:29.731Z,11.56
2019-02-19T13:03:58.744Z,11.58
2019-02-19T13:06:34.949Z,11.58
2019-02-19T13:09:07.046Z,11.59
2019-02-19T13:11:36.889Z,11.60
2019-02-19T13:14:06.721Z,11.61
2019-02-19T13:16:44.877Z,11.60
2019-02-19T13:19:27.764Z,11.61
2019-02-19T13:21:57.109Z,11.63
2019-02-19T13:24:28.008Z,11.67
2019-02-19T13:27:05.081Z,11.68
2019-02-19T13:29:34.222Z,11.68
2019-02-19T13:32:04.935Z,11.67
2019-02-19T13:34:37.290Z,11.64
2019-02-19T13:37:07.514Z,11.59
2019-02-19T13:39:41.093Z,11.56
2019-02-19T13:42:13.118Z,11.54
2019-02-19T13:44:46.692Z,11.49
2019-02-19T13:47:18.752Z,11.47
2019-02-19T13:49:52.932Z,11.44
2019-02-19T13:52:27.842Z,11.39
2019-02-19T13:55:02.500Z,11.33
2019-02-19T13:57:38.665Z,11.26
2019-02-19T14:00:18.716Z,11.21
2019-02-19T14:02:53.922Z,11.16
2019-02-19T14:05:29.299Z,11.12
2019-02-19T14:08:14.549Z,11.08
2019-02-19T14:10:43.638Z,11.05
2019-02-19T14:13:16.051Z,11.04
2019-02-19T14:15:54.645Z,11.03
2019-02-19T14:19:33.224Z,11.03
2019-02-19T14:22:10.734Z,11.06
2019-02-19T14:26:52.019Z,11.13
2019-02-19T14:33:27.698Z,11.38
2019-02-19T14:36:07.900Z,11.43
2019-02-19T14:38:48.153Z,11.48
2019-02-19T14:41:34.283Z,11.57
2019-02-19T14:44:19.553Z,11.60
2019-02-19T14:47:07.514Z,11.60
2019-02-19T14:49:47.337Z,11.58
2019-02-19T14:52:20.173Z,11.53
2019-02-19T14:55:59.898Z,11.48
2019-02-19T14:58:35.763Z,11.46
2019-02-19T15:01:48.363Z,11.47
2019-02-19T15:06:29.098Z,11.51
2019-02-19T15:10:06.348Z,11.57
2019-02-19T15:12:43.340Z,11.58
2019-02-19T15:15:21.719Z,11.58
2019-02-19T15:18:04.890Z,11.59
2019-02-19T15:22:47.041Z,11.60
2019-02-19T15:28:17.787Z,11.57
2019-02-19T15:31:18.921Z,11.54
2019-02-19T15:34:02.693Z,11.52
2019-02-19T15:36:44.515Z,11.47
2019-02-19T15:39:18.876Z,11.42
2019-02-19T15:41:55.015Z,11.37
2019-02-19T15:44:31.921Z,11.34
2019-02-19T15:49:10.082Z,11.29
2019-02-19T15:51:53.952Z,11.24
2019-02-19T15:55:03.789Z,11.23
2019-02-19T15:57:41.748Z,11.24
2019-02-19T16:00:22.291Z,11.27
2019-02-19T16:03:11.340Z,11.28
2019-02-19T16:05:47.560Z,11.31
2019-02-19T16:08:28.125Z,11.33
2019-02-19T16:11:03.096Z,11.37
2019-02-19T16:13:38.974Z,11.38
2019-02-19T16:17:22.312Z,11.36
2019-02-19T16:20:01.032Z,11.36
2019-02-19T16:22:40.419Z,11.34
2019-02-19T16:26:20.490Z,11.32
2019-02-19T16:29:05.782Z,11.29
2019-02-19T16:32:42.650Z,11.26
2019-02-19T16:35:20.127Z,11.20
2019-02-19T16:38:04.854Z,11.15
2019-02-19T16:41:40.667Z,11.13
2019-02-19T16:44:20.912Z,11.13
2019-02-19T16:46:57.038Z,11.13
2019-02-19T16:51:35.820Z,11.08
2019-02-19T16:54:13.010Z,11.07
2019-02-19T16:56:50.483Z,11.05
2019-02-19T17:00:31.683Z,11.04
2019-02-19T17:03:09.552Z,11.00
2019-02-19T17:05:51.065Z,10.96
2019-02-19T17:08:30.304Z,10.90
2019-02-19T17:12:06.179Z,10.85
2019-02-19T17:14:53.255Z,10.82
2019-02-19T17:17:31.440Z,10.75
2019-02-19T17:22:56.162Z,10.65
2019-02-19T17:25:37.948Z,10.59
2019-02-19T17:28:20.524Z,10.56
2019-02-19T17:30:55.183Z,10.49
2019-02-19T17:33:29.541Z,10.45
2019-02-19T17:38:14.910Z,10.42
2019-02-19T17:41:02.935Z,10.34
2019-02-19T17:43:37.308Z,10.30
2019-02-19T17:46:14.799Z,10.25
2019-02-19T17:49:01.616Z,10.21
2019-02-19T17:51:41.340Z,10.17
2019-02-19T17:55:01.591Z,10.14
2019-02-19T17:57:55.722Z,10.13
2019-02-19T18:00:31.586Z,10.10
2019-02-19T18:03:18.420Z,10.10
2019-02-19T18:05:55.970Z,10.11
2019-02-19T18:08:34.323Z,10.11
2019-02-19T18:11:16.083Z,10.11
2019-02-19T18:13:55.343Z,10.14
2019-02-19T18:17:29.596Z,10.16
2019-02-19T18:19:59.874Z,10.15
2019-02-19T18:22:36.454Z,10.16
2019-02-19T18:25:08.476Z,10.17
2019-02-19T18:27:41.613Z,10.15
2019-02-19T18:30:11.757Z,10.11
2019-02-19T18:32:41.439Z,10.07
2019-02-19T18:35:11.717Z,10.04
2019-02-19T18:37:43.249Z,10.02
2019-02-19T18:40:18.918Z,9.98
2019-02-19T18:42:48.809Z,9.92
2019-02-19T18:45:18.360Z,9.89
2019-02-19T18:47:49.429Z,9.85
2019-02-19T18:50:25.108Z,9.82
2019-02-19T18:52:58.140Z,9.78
2019-02-19T18:55:28.426Z,9.76
2019-02-19T18:57:58.166Z,9.74
2019-02-19T19:00:32.694Z,9.70
2019-02-19T19:03:13.831Z,9.67
2019-02-19T19:05:48.473Z,9.63
2019-02-19T19:08:23.757Z,9.58
2019-02-19T19:10:54.248Z,9.55
2019-02-19T19:13:26.350Z,9.52
2019-02-19T19:16:01.939Z,9.53
2019-02-19T19:18:34.146Z,9.54
2019-02-19T19:21:07.861Z,9.53
2019-02-19T19:23:38.949Z,9.57
2019-02-19T19:26:09.536Z,9.59
2019-02-19T19:28:43.863Z,9.62
2019-02-19T19:31:19.287Z,9.65
2019-02-19T19:33:50.182Z,9.65
2019-02-19T19:36:21.980Z,9.65
2019-02-19T19:41:33.713Z,9.65
2019-02-19T19:44:05.026Z,9.65
2019-02-19T19:46:35.071Z,9.63
2019-02-19T19:49:09.359Z,9.64
2019-02-19T19:51:39.785Z,9.66
2019-02-19T19:54:12.065Z,9.66
2019-02-19T19:56:44.781Z,9.67
2019-02-19T19:59:15.346Z,9.67
2019-02-19T20:01:47.053Z,9.66
2019-02-19T20:04:24.835Z,9.66
2019-02-19T20:06:59.600Z,9.66
2019-02-19T20:09:29.127Z,9.67
2019-02-19T20:12:02.628Z,9.67
2019-02-19T20:14:43.050Z,9.67
2019-02-19T20:17:13.907Z,9.67
2019-02-19T20:19:50.532Z,9.67
2019-02-19T20:22:21.999Z,9.69
2019-02-19T20:24:52.943Z,9.69
2019-02-19T20:27:25.275Z,9.69
2019-02-19T20:29:56.214Z,9.69
2019-02-19T20:32:25.304Z,9.70
2019-02-19T20:34:58.521Z,9.70
2019-02-19T20:37:28.593Z,9.71
2019-02-19T20:40:01.214Z,9.69
2019-02-19T20:42:32.343Z,9.69
2019-02-19T20:45:03.704Z,9.69
2019-02-19T20:47:37.226Z,9.69
2019-02-19T20:50:10.403Z,9.71
2019-02-19T20:52:44.914Z,9.70
2019-02-19T20:55:15.998Z,9.72
2019-02-19T20:57:51.436Z,9.73
2019-02-19T21:00:23.035Z,9.72
2019-02-19T21:02:58.102Z,9.71
2019-02-19T21:05:37.137Z,9.70
2019-02-19T21:08:08.070Z,9.69
2019-02-19T21:10:40.633Z,9.69
2019-02-19T21:13:13.352Z,9.68
2019-02-19T21:15:42.588Z,9.69
2019-02-19T21:18:19.601Z,9.69
2019-02-19T21:20:50.251Z,9.68
2019-02-19T21:23:25.092Z,9.68
2019-02-19T21:25:55.860Z,9.68
2019-02-19T21:28:32.139Z,9.68
2019-02-19T21:31:04.039Z,9.67
2019-02-19T21:33:45.646Z,9.68
2019-02-19T21:36:15.220Z,9.67
2019-02-19T21:38:48.026Z,9.65
2019-02-19T21:41:23.068Z,9.66
2019-02-19T21:43:56.544Z,9.64
2019-02-19T21:46:26.373Z,9.65
2019-02-19T21:49:01.385Z,9.65
2019-02-19T21:51:30.553Z,9.65
2019-02-19T21:54:03.146Z,9.67
2019-02-19T21:56:33.960Z,9.66
2019-02-19T21:59:06.795Z,9.68
2019-02-19T22:01:39.017Z,9.68
2019-02-19T22:04:14.855Z,9.69
2019-02-19T22:06:46.112Z,9.68
2019-02-19T22:09:16.029Z,9.68
2019-02-19T22:11:45.142Z,9.68
2019-02-19T22:14:16.187Z,9.66
2019-02-19T22:19:22.066Z,9.66
2019-02-19T22:22:04.871Z,9.66
2019-02-19T22:24:36.479Z,9.66
2019-02-19T22:27:08.583Z,9.67
2019-02-19T22:29:40.016Z,9.67
2019-02-19T22:32:10.389Z,9.67
2019-02-19T22:34:39.498Z,9.69
2019-02-19T22:37:10.022Z,9.69
2019-02-19T22:39:40.315Z,9.69
2019-02-19T22:42:14.208Z,9.70
2019-02-19T22:44:44.971Z,9.69
2019-02-19T22:47:22.754Z,9.71
2019-02-19T22:49:56.563Z,9.72
2019-02-19T22:52:27.525Z,9.72
2019-02-19T22:55:33.251Z,9.72
2019-02-19T22:58:06.219Z,9.72
2019-02-19T23:00:42.018Z,9.71
2019-02-19T23:03:17.537Z,9.70
2019-02-19T23:05:51.925Z,9.72
2019-02-19T23:08:23.334Z,9.72
2019-02-19T23:10:53.279Z,9.73
2019-02-19T23:13:22.783Z,9.74
2019-02-19T23:15:53.148Z,9.74
2019-02-19T23:18:22.311Z,9.74
2019-02-19T23:20:53.346Z,9.74
2019-02-19T23:23:23.943Z,9.74
2019-02-19T23:25:53.639Z,9.75
2019-02-19T23:28:24.740Z,9.74
2019-02-19T23:30:55.930Z,9.75
2019-02-19T23:33:25.382Z,9.76
2019-02-19T23:36:00.423Z,9.75
2019-02-19T23:38:32.178Z,9.75
2019-02-19T23:41:01.767Z,9.75
2019-02-19T23:43:33.507Z,9.76
2019-02-19T23:46:04.207Z,9.76
2019-02-19T23:48:33.250Z,9.77
2019-02-19T23:51:03.019Z,9.78
2019-02-19T23:53:34.207Z,9.77
2019-02-19T23:56:08.498Z,9.78
2019-02-19T23:58:38.497Z,9.78
